Time;durP1;ratioP1;P1;durP2;ratioP2;P2;SDS_P1;SDS_P2;PMS_P1;PMS_P2;Temp;Humidity;BMP_temperature;BMP_pressure;BME280_temperature;BME280_humidity;BME280_pressure;Samples;Min_cycle;Max_cycle;Signal;HPM_P1;HPM_P2
2024/01/25 00:00:09;;;;;;;5.57;1.63;;;7.50;99.90;;;;;;2066510;28;20192;-66
2024/01/25 00:01:10;;;;;;;4.47;1.88;;;7.50;99.90;;;;;;2068133;28;20189;-67
2024/01/25 00:02:11;;;;;;;4.97;1.97;;;7.50;99.90;;;;;;2069496;28;20196;-66
2024/01/25 00:03:11;;;;;;;3.40;1.73;;;7.50;99.90;;;;;;2069287;28;20198;-65
2024/01/25 00:04:12;;;;;;;4.50;1.53;;;7.50;99.90;;;;;;2066371;28;20221;-66
2024/01/25 00:05:14;;;;;;;6.18;1.35;;;7.40;99.90;;;;;;2068311;28;20209;-67
2024/01/25 00:06:14;;;;;;;16.23;1.57;;;7.40;99.90;;;;;;2068083;28;20192;-67
2024/01/25 00:07:15;;;;;;;5.80;1.60;;;7.30;99.90;;;;;;2062077;28;20207;-66
2024/01/25 00:08:16;;;;;;;5.93;1.53;;;7.30;99.90;;;;;;2065725;28;20689;-66
2024/01/25 00:09:16;;;;;;;4.30;1.40;;;7.30;99.90;;;;;;2069430;28;20236;-65
2024/01/25 00:10:18;;;;;;;3.17;1.20;;;7.40;99.90;;;;;;2065483;28;20212;-66
2024/01/25 00:11:18;;;;;;;5.50;1.40;;;7.40;99.90;;;;;;2066984;28;20821;-66
2024/01/25 00:12:19;;;;;;;2.40;1.37;;;7.40;99.90;;;;;;2069899;28;20228;-66
2024/01/25 00:13:20;;;;;;;2.97;1.23;;;7.40;99.90;;;;;;2053847;28;20301;-66
2024/01/25 00:14:20;;;;;;;4.80;1.53;;;7.40;99.90;;;;;;2053065;28;20266;-66
2024/01/25 00:15:21;;;;;;;7.33;1.60;;;7.40;99.90;;;;;;2066669;28;20244;-66
2024/01/25 00:16:22;;;;;;;5.03;1.57;;;7.30;99.90;;;;;;2066877;28;20233;-66
2024/01/25 00:17:22;;;;;;;6.33;1.50;;;7.30;99.90;;;;;;2070275;28;20729;-66
2024/01/25 00:18:23;;;;;;;5.63;1.53;;;7.30;99.90;;;;;;2065835;28;20229;-67
2024/01/25 00:19:24;;;;;;;5.70;1.13;;;7.30;99.90;;;;;;2054572;28;20238;-66
2024/01/25 00:20:24;;;;;;;4.93;1.40;;;7.30;99.90;;;;;;2057028;28;20321;-65
2024/01/25 00:21:25;;;;;;;5.30;1.50;;;7.30;99.90;;;;;;2061028;28;20229;-65
2024/01/25 00:22:26;;;;;;;3.60;1.20;;;7.30;99.90;;;;;;2061473;28;20240;-65
2024/01/25 00:23:27;;;;;;;5.30;1.37;;;7.30;99.90;;;;;;2065965;28;20262;-65
2024/01/25 00:24:28;;;;;;;3.97;1.17;;;7.30;99.90;;;;;;2066820;28;20709;-65
2024/01/25 00:25:28;;;;;;;10.70;1.73;;;7.20;99.90;;;;;;2068446;28;20225;-68
2024/01/25 00:26:29;;;;;;;6.67;1.47;;;7.20;99.90;;;;;;2064388;28;20229;-65
2024/01/25 00:27:30;;;;;;;4.00;1.60;;;7.10;99.90;;;;;;2065699;28;20244;-64
2024/01/25 00:28:30;;;;;;;4.27;1.40;;;7.10;99.90;;;;;;2065394;28;20238;-65
2024/01/25 00:29:31;;;;;;;5.53;1.53;;;7.00;99.90;;;;;;2066373;28;20222;-64
2024/01/25 00:30:32;;;;;;;5.73;1.73;;;7.00;99.90;;;;;;2061560;28;20221;-65
2024/01/25 00:31:32;;;;;;;5.93;1.63;;;7.00;99.90;;;;;;2062336;28;20241;-64
2024/01/25 00:32:33;;;;;;;5.57;1.40;;;7.00;99.90;;;;;;2066979;28;20596;-64
2024/01/25 00:33:34;;;;;;;3.63;1.20;;;7.00;99.90;;;;;;2059509;28;20222;-64
2024/01/25 00:34:35;;;;;;;3.67;1.30;;;7.00;99.90;;;;;;2052770;28;20725;-65
2024/01/25 00:35:36;;;;;;;1.85;1.10;;;7.00;99.90;;;;;;2061581;28;20244;-64
2024/01/25 00:36:37;;;;;;;5.97;1.55;;;6.90;99.90;;;;;;2065873;28;20236;-64
2024/01/25 00:37:38;;;;;;;5.60;1.50;;;7.00;99.90;;;;;;2066176;28;20304;-65
2024/01/25 00:38:39;;;;;;;4.00;1.20;;;6.90;99.90;;;;;;2066522;28;20575;-65
2024/01/25 00:39:40;;;;;;;3.95;1.40;;;6.80;99.90;;;;;;2066414;28;20841;-65
2024/01/25 00:40:41;;;;;;;6.57;1.80;;;6.80;99.90;;;;;;2058387;28;20691;-65
2024/01/25 00:41:44;;;;;;;5.40;1.42;;;6.80;99.90;;;;;;2060938;28;20229;-65
2024/01/25 00:42:52;;;;;;;3.40;1.30;;;6.80;99.90;;;;;;2054203;28;20237;-64
2024/01/25 00:43:53;;;;;;;3.35;1.45;;;6.70;99.90;;;;;;2047992;28;20254;-64
2024/01/25 00:44:54;;;;;;;4.43;2.50;;;6.70;99.90;;;;;;2062404;28;20763;-65
2024/01/25 00:45:55;;;;;;;5.07;1.52;;;6.60;99.90;;;;;;2069375;28;20228;-64
2024/01/25 00:46:56;;;;;;;3.42;1.40;;;6.60;99.90;;;;;;2065460;28;20327;-64
2024/01/25 00:47:57;;;;;;;4.28;1.38;;;6.60;99.90;;;;;;2065625;28;20268;-64
2024/01/25 00:48:59;;;;;;;4.53;1.25;;;6.60;99.90;;;;;;2067046;28;20567;-65
2024/01/25 00:50:00;;;;;;;5.18;1.23;;;6.70;99.90;;;;;;2066424;28;20237;-65
2024/01/25 00:51:02;;;;;;;3.53;1.60;;;6.70;99.90;;;;;;2066268;28;20213;-64
2024/01/25 00:52:04;;;;;;;2.75;1.50;;;6.70;99.90;;;;;;2057795;28;20182;-64
2024/01/25 00:53:06;;;;;;;2.95;1.25;;;6.70;99.90;;;;;;2053860;28;20230;-65
2024/01/25 00:54:07;;;;;;;3.33;1.20;;;6.70;99.90;;;;;;2061040;28;20650;-64
2024/01/25 00:55:08;;;;;;;4.82;1.58;;;6.80;99.90;;;;;;2068776;28;20642;-65
2024/01/25 00:56:10;;;;;;;2.72;1.20;;;6.80;99.90;;;;;;2066224;28;20273;-65
2024/01/25 00:57:11;;;;;;;4.45;1.45;;;6.70;99.90;;;;;;2070652;28;20335;-64
2024/01/25 00:58:12;;;;;;;4.68;1.55;;;6.70;99.90;;;;;;2065921;28;20673;-65
2024/01/25 00:59:13;;;;;;;3.57;1.30;;;6.60;99.90;;;;;;2068017;28;20271;-65
2024/01/25 01:00:15;;;;;;;4.23;1.60;;;6.60;99.90;;;;;;2064514;28;20229;-65
2024/01/25 01:01:16;;;;;;;2.30;1.10;;;6.50;99.90;;;;;;2065423;28;20415;-65
2024/01/25 01:02:18;;;;;;;4.43;1.60;;;6.50;99.90;;;;;;2064985;28;20264;-65
2024/01/25 01:03:19;;;;;;;3.25;1.00;;;6.40;99.90;;;;;;2056282;28;20207;-64
2024/01/25 01:04:20;;;;;;;2.88;1.27;;;6.40;99.90;;;;;;2057123;28;20246;-64
2024/01/25 01:05:22;;;;;;;5.35;1.30;;;6.40;99.90;;;;;;2069256;28;20233;-65
2024/01/25 01:06:23;;;;;;;4.22;1.52;;;6.40;99.90;;;;;;2061518;28;20237;-65
2024/01/25 01:07:24;;;;;;;4.00;1.60;;;6.40;99.90;;;;;;2057610;28;20654;-65
2024/01/25 01:08:26;;;;;;;7.90;1.58;;;6.40;99.90;;;;;;2063570;28;20222;-65
2024/01/25 01:09:26;;;;;;;5.82;1.33;;;6.40;99.90;;;;;;2055992;28;20276;-65
2024/01/25 01:10:27;;;;;;;2.73;1.10;;;6.40;99.90;;;;;;2052006;28;20235;-65
2024/01/25 01:11:28;;;;;;;7.57;2.10;;;6.30;99.90;;;;;;2065535;28;20599;-65
2024/01/25 01:12:28;;;;;;;4.73;1.53;;;6.30;99.90;;;;;;2061926;28;20236;-65
2024/01/25 01:13:29;;;;;;;3.97;1.27;;;6.30;99.90;;;;;;2052860;28;20231;-65
2024/01/25 01:14:30;;;;;;;3.93;1.30;;;6.40;99.90;;;;;;2058729;28;20238;-65
2024/01/25 01:15:30;;;;;;;4.57;1.27;;;6.40;99.90;;;;;;2066400;28;20559;-65
2024/01/25 01:16:33;;;;;;;4.13;1.10;;;6.40;99.90;;;;;;2065625;28;20224;-65
2024/01/25 01:17:33;;;;;;;5.22;1.50;;;6.40;99.90;;;;;;2065017;28;20257;-65
2024/01/25 01:18:34;;;;;;;5.67;1.53;;;6.50;99.90;;;;;;2052176;28;20241;-65
2024/01/25 01:19:35;;;;;;;7.67;1.97;;;6.50;99.90;;;;;;2050024;28;20226;-65
2024/01/25 01:20:36;;;;;;;5.17;1.20;;;6.50;99.90;;;;;;2065526;28;20283;-65
2024/01/25 01:21:36;;;;;;;3.40;1.40;;;6.50;99.90;;;;;;2053977;28;20603;-65
2024/01/25 01:22:37;;;;;;;4.97;1.47;;;6.50;99.90;;;;;;2053022;28;20240;-65
2024/01/25 01:23:38;;;;;;;3.37;1.57;;;6.50;99.90;;;;;;2060641;28;20236;-65
2024/01/25 01:24:38;;;;;;;5.47;1.50;;;6.50;99.90;;;;;;2061627;28;20292;-65
2024/01/25 01:25:39;;;;;;;7.57;2.07;;;6.50;99.90;;;;;;2057340;28;20710;-65
2024/01/25 01:26:41;;;;;;;3.70;1.80;;;6.50;99.90;;;;;;2058154;28;20262;-65
2024/01/25 01:27:42;;;;;;;3.08;1.20;;;6.50;99.90;;;;;;2061137;28;20237;-65
2024/01/25 01:28:43;;;;;;;4.00;1.53;;;6.50;99.90;;;;;;2062169;28;20237;-65
2024/01/25 01:29:43;;;;;;;3.00;1.20;;;6.60;99.90;;;;;;2062278;28;20644;-65
2024/01/25 01:30:45;;;;;;;3.17;1.30;;;6.50;99.90;;;;;;2062353;28;20226;-65
2024/01/25 01:31:46;;;;;;;2.97;1.08;;;6.50;99.90;;;;;;2063258;28;20233;-65
2024/01/25 01:32:46;;;;;;;9.73;1.67;;;6.50;99.90;;;;;;2061840;28;20237;-64
2024/01/25 01:33:47;;;;;;;4.47;1.60;;;6.50;99.90;;;;;;2061373;28;20234;-65
2024/01/25 01:34:48;;;;;;;2.23;1.20;;;6.50;99.90;;;;;;2061671;28;20620;-65
2024/01/25 01:35:49;;;;;;;4.40;1.47;;;6.50;99.90;;;;;;2071071;28;20304;-65
2024/01/25 01:36:49;;;;;;;6.97;1.40;;;6.50;99.90;;;;;;2059670;28;20733;-65
2024/01/25 01:37:50;;;;;;;5.73;1.40;;;6.60;99.90;;;;;;2062818;28;20686;-65
2024/01/25 01:38:50;;;;;;;2.10;1.27;;;6.50;99.90;;;;;;2070456;28;20610;-65
2024/01/25 01:39:52;;;;;;;4.50;1.30;;;6.50;99.90;;;;;;2055082;28;20289;-65
2024/01/25 01:40:53;;;;;;;2.75;1.00;;;6.40;99.90;;;;;;2055533;28;20226;-65
2024/01/25 01:41:53;;;;;;;3.87;1.37;;;6.40;99.90;;;;;;2072068;28;20841;-65
2024/01/25 01:43:00;;;;;;;3.63;1.03;;;6.30;99.90;;;;;;2072027;28;20608;-65
2024/01/25 01:44:01;;;;;;;2.83;1.17;;;6.40;99.90;;;;;;2065774;28;20281;-64
2024/01/25 01:45:02;;;;;;;1.57;0.80;;;6.40;99.90;;;;;;2063245;28;20214;-65
2024/01/25 01:46:11;;;;;;;2.73;1.10;;;6.40;99.90;;;;;;2064288;28;20627;-65
2024/01/25 01:47:12;;;;;;;1.33;0.90;;;6.40;99.90;;;;;;2061908;28;20269;-65
2024/01/25 01:48:13;;;;;;;6.27;1.43;;;6.40;99.90;;;;;;2061659;28;20183;-65
2024/01/25 01:49:15;;;;;;;2.90;0.95;;;6.40;99.90;;;;;;2063215;28;20178;-65
2024/01/25 01:50:15;;;;;;;4.40;1.10;;;6.50;99.90;;;;;;2062869;28;20281;-65
2024/01/25 01:51:16;;;;;;;2.00;0.90;;;6.50;99.90;;;;;;2062961;28;20663;-65
2024/01/25 01:52:18;;;;;;;6.68;1.27;;;6.50;99.90;;;;;;2059514;28;20233;-65
2024/01/25 01:53:18;;;;;;;2.90;1.02;;;6.50;99.90;;;;;;2063888;28;20206;-65
2024/01/25 01:54:19;;;;;;;2.57;0.90;;;6.50;99.90;;;;;;2063794;28;20222;-65
2024/01/25 01:55:20;;;;;;;0.97;0.70;;;6.50;99.90;;;;;;2061183;28;20196;-65
2024/01/25 01:56:24;;;;;;;3.78;0.80;;;6.50;99.90;;;;;;2060756;28;20730;-65
2024/01/25 01:57:26;;;;;;;2.08;0.90;;;6.40;99.90;;;;;;2053167;28;20241;-65
2024/01/25 01:58:30;;;;;;;3.90;0.85;;;6.50;99.90;;;;;;2045226;28;20283;-65
2024/01/25 01:59:31;;;;;;;4.03;1.02;;;6.50;99.90;;;;;;2059599;28;20582;-64
2024/01/25 02:00:34;;;;;;;5.10;1.27;;;6.50;99.90;;;;;;2062925;28;20281;-65
2024/01/25 02:01:34;;;;;;;1.48;0.93;;;6.40;99.90;;;;;;2063471;28;20239;-65
2024/01/25 02:02:35;;;;;;;2.03;0.73;;;6.40;99.90;;;;;;2068166;28;20279;-65
2024/01/25 02:03:36;;;;;;;1.00;0.80;;;6.40;99.90;;;;;;2061902;28;20284;-65
2024/01/25 02:04:37;;;;;;;2.40;0.60;;;6.40;99.90;;;;;;2062804;28;20249;-65
2024/01/25 02:05:38;;;;;;;1.00;0.60;;;6.40;99.90;;;;;;2070885;28;20229;-65
2024/01/25 02:06:39;;;;;;;2.57;0.90;;;6.40;99.90;;;;;;2071007;28;20256;-65
2024/01/25 02:07:40;;;;;;;3.37;0.73;;;6.40;99.90;;;;;;2060744;28;20222;-65
2024/01/25 02:08:41;;;;;;;1.95;0.77;;;6.40;99.90;;;;;;2054721;28;20481;-65
2024/01/25 02:09:41;;;;;;;0.80;0.80;;;6.40;99.90;;;;;;2053142;28;20234;-65
2024/01/25 02:10:43;;;;;;;0.60;0.53;;;6.40;99.90;;;;;;2061286;28;20273;-65
2024/01/25 02:11:43;;;;;;;0.95;0.70;;;6.40;99.90;;;;;;2072374;28;20228;-65
2024/01/25 02:12:44;;;;;;;1.17;0.83;;;6.40;99.90;;;;;;2062341;28;20671;-65
2024/01/25 02:13:45;;;;;;;0.50;0.50;;;6.40;99.90;;;;;;2055776;28;20233;-65
2024/01/25 02:14:46;;;;;;;1.03;0.80;;;6.50;99.90;;;;;;2062858;28;20254;-65
2024/01/25 02:15:46;;;;;;;1.87;0.77;;;6.50;99.90;;;;;;2062745;28;20232;-65
2024/01/25 02:16:47;;;;;;;1.07;0.50;;;6.50;99.90;;;;;;2066492;28;20317;-65
2024/01/25 02:17:48;;;;;;;2.58;0.70;;;6.50;99.90;;;;;;2058662;28;20226;-65
2024/01/25 02:18:49;;;;;;;0.63;0.57;;;6.50;99.90;;;;;;2054644;28;20245;-65
2024/01/25 02:19:49;;;;;;;0.40;0.40;;;6.50;99.90;;;;;;2060744;28;20261;-65
2024/01/25 02:20:50;;;;;;;1.10;0.60;;;6.60;99.90;;;;;;2068577;28;20232;-65
2024/01/25 02:21:55;;;;;;;0.57;0.30;;;6.60;99.90;;;;;;2069206;28;20793;-65
2024/01/25 02:22:56;;;;;;;0.50;0.50;;;6.50;99.90;;;;;;2047163;28;20229;-65
2024/01/25 02:23:56;;;;;;;1.37;0.47;;;6.60;99.90;;;;;;2051931;28;20758;-65
2024/01/25 02:24:57;;;;;;;2.90;0.93;;;6.50;99.90;;;;;;2063577;28;20327;-65
2024/01/25 02:25:58;;;;;;;0.40;0.40;;;6.60;99.90;;;;;;2068173;28;20312;-65
2024/01/25 02:26:59;;;;;;;2.07;0.60;;;6.50;99.90;;;;;;2059091;28;20234;-65
2024/01/25 02:27:59;;;;;;;0.67;0.40;;;6.60;99.90;;;;;;2060618;28;20226;-65
2024/01/25 02:29:00;;;;;;;0.67;0.60;;;6.60;99.90;;;;;;2062418;28;20240;-65
2024/01/25 02:30:01;;;;;;;0.50;0.50;;;6.60;99.90;;;;;;2060316;28;20686;-64
2024/01/25 02:31:02;;;;;;;1.67;0.50;;;6.50;99.90;;;;;;2061620;28;20252;-64
2024/01/25 02:32:04;;;;;;;0.90;0.68;;;6.60;99.90;;;;;;2063497;28;20193;-65
2024/01/25 02:33:04;;;;;;;0.63;0.40;;;6.50;99.90;;;;;;2062021;28;20205;-65
2024/01/25 02:34:05;;;;;;;1.33;0.57;;;6.50;99.90;;;;;;2061234;28;20622;-65
2024/01/25 02:35:06;;;;;;;1.33;0.40;;;6.50;99.90;;;;;;2068409;28;20192;-65
2024/01/25 02:36:07;;;;;;;1.00;0.68;;;6.50;99.90;;;;;;2070301;28;20182;-65
2024/01/25 02:37:07;;;;;;;1.20;0.40;;;6.50;99.90;;;;;;2069723;28;20188;-65
2024/01/25 02:38:08;;;;;;;1.20;0.40;;;6.60;99.90;;;;;;2069242;28;20809;-65
2024/01/25 02:39:09;;;;;;;0.33;0.33;;;6.60;99.90;;;;;;2061037;28;20210;-65
2024/01/25 02:40:10;;;;;;;1.07;0.53;;;6.60;99.90;;;;;;2061504;28;20259;-65
2024/01/25 02:41:11;;;;;;;0.63;0.50;;;6.60;99.90;;;;;;2068813;28;20248;-65
2024/01/25 02:42:13;;;;;;;0.60;0.40;;;6.50;99.90;;;;;;2071947;28;20189;-65
2024/01/25 02:43:13;;;;;;;1.58;0.45;;;6.50;99.90;;;;;;2069702;28;20612;-65
2024/01/25 02:44:15;;;;;;;0.30;0.30;;;6.50;99.90;;;;;;2061408;28;20192;-65
2024/01/25 02:45:15;;;;;;;0.50;0.50;;;6.50;99.90;;;;;;2053665;28;20573;-65
2024/01/25 02:46:16;;;;;;;0.87;0.50;;;6.50;99.90;;;;;;2063128;28;20185;-65
2024/01/25 02:47:17;;;;;;;0.70;0.70;;;6.60;99.90;;;;;;2061829;28;20220;-65
2024/01/25 02:48:18;;;;;;;0.60;0.60;;;6.50;99.90;;;;;;2061203;28;20193;-65
2024/01/25 02:49:18;;;;;;;0.50;0.50;;;6.50;99.90;;;;;;2070761;28;20213;-65
2024/01/25 02:50:19;;;;;;;0.70;0.50;;;6.50;99.90;;;;;;2067676;28;20183;-65
2024/01/25 02:51:20;;;;;;;2.00;0.50;;;6.50;99.90;;;;;;2070240;28;20633;-64
2024/01/25 02:52:20;;;;;;;0.40;0.40;;;6.60;99.90;;;;;;2066255;28;20248;-65
2024/01/25 02:53:21;;;;;;;1.00;0.60;;;6.60;99.90;;;;;;2060599;28;20265;-65
2024/01/25 02:54:22;;;;;;;1.60;0.83;;;6.50;99.90;;;;;;2062510;28;20730;-65
2024/01/25 02:55:22;;;;;;;0.97;0.67;;;6.50;99.90;;;;;;2061719;28;20248;-63
2024/01/25 02:56:23;;;;;;;3.43;1.00;;;6.50;99.90;;;;;;2061739;28;20334;-63
2024/01/25 02:57:25;;;;;;;2.53;0.60;;;6.50;99.90;;;;;;2071460;28;20296;-64
2024/01/25 02:58:26;;;;;;;1.85;0.90;;;6.50;99.90;;;;;;2057911;28;20219;-64
2024/01/25 02:59:26;;;;;;;3.13;1.20;;;6.40;99.90;;;;;;2063385;28;20602;-64
2024/01/25 03:00:27;;;;;;;3.33;0.80;;;6.40;99.90;;;;;;2061071;28;20222;-65
2024/01/25 03:01:28;;;;;;;1.70;0.70;;;6.40;99.90;;;;;;2062478;28;20741;-65
2024/01/25 03:02:28;;;;;;;2.63;0.90;;;6.40;99.90;;;;;;2069849;28;20282;-65
2024/01/25 03:03:29;;;;;;;5.30;0.87;;;6.40;99.90;;;;;;2070472;28;20312;-65
2024/01/25 03:04:30;;;;;;;3.70;1.00;;;6.40;99.90;;;;;;2071272;28;20709;-65
2024/01/25 03:05:30;;;;;;;2.57;1.00;;;6.40;99.90;;;;;;2061997;28;20634;-65
2024/01/25 03:06:31;;;;;;;4.17;0.97;;;6.40;99.90;;;;;;2053838;28;20249;-65
2024/01/25 03:07:31;;;;;;;3.50;0.80;;;6.40;99.90;;;;;;2059140;28;20222;-65
2024/01/25 03:08:32;;;;;;;2.10;0.77;;;6.30;99.90;;;;;;2070540;28;20225;-65
2024/01/25 03:09:33;;;;;;;3.27;1.30;;;6.30;99.90;;;;;;2068560;28;20714;-64
2024/01/25 03:10:33;;;;;;;4.50;1.30;;;6.30;99.90;;;;;;2063986;28;20609;-65
2024/01/25 03:11:34;;;;;;;3.27;0.90;;;6.30;99.90;;;;;;2059563;28;20227;-65
2024/01/25 03:12:35;;;;;;;8.53;1.30;;;6.30;99.90;;;;;;2060565;28;20292;-65
2024/01/25 03:13:36;;;;;;;3.80;1.30;;;6.30;99.90;;;;;;2065798;28;20228;-64
2024/01/25 03:14:36;;;;;;;3.67;1.03;;;6.20;99.90;;;;;;2066670;28;20645;-65
2024/01/25 03:15:37;;;;;;;4.20;1.23;;;6.20;99.90;;;;;;2062278;28;20321;-65
2024/01/25 03:16:38;;;;;;;2.97;0.90;;;6.20;99.90;;;;;;2049006;28;20719;-65
2024/01/25 03:17:39;;;;;;;1.70;0.90;;;6.20;99.90;;;;;;2045702;28;20243;-65
2024/01/25 03:18:39;;;;;;;7.87;1.40;;;6.20;99.90;;;;;;2053446;28;20723;-64
2024/01/25 03:19:40;;;;;;;2.70;1.63;;;6.20;99.90;;;;;;2059819;28;20602;-65
2024/01/25 03:20:41;;;;;;;3.63;1.03;;;6.10;99.90;;;;;;2061666;28;20225;-65
2024/01/25 03:21:41;;;;;;;1.53;0.70;;;6.20;99.90;;;;;;2059062;28;20326;-65
2024/01/25 03:22:42;;;;;;;3.97;1.10;;;6.20;99.90;;;;;;2053831;28;20726;-65
2024/01/25 03:23:43;;;;;;;3.77;0.87;;;6.20;99.90;;;;;;2056415;28;20598;-65
2024/01/25 03:24:43;;;;;;;3.53;1.00;;;6.20;99.90;;;;;;2059575;28;20333;-64
2024/01/25 03:25:44;;;;;;;3.20;0.97;;;6.10;99.90;;;;;;2053885;28;20781;-65
2024/01/25 03:26:45;;;;;;;3.53;0.70;;;6.10;99.90;;;;;;2055031;28;20318;-65
2024/01/25 03:27:45;;;;;;;1.83;0.87;;;6.10;99.90;;;;;;2058243;28;20222;-65
2024/01/25 03:28:46;;;;;;;2.67;0.80;;;6.10;99.90;;;;;;2062680;28;20326;-65
2024/01/25 03:29:47;;;;;;;2.33;1.20;;;6.10;99.90;;;;;;2063322;28;20260;-64
2024/01/25 03:30:47;;;;;;;4.90;1.10;;;6.10;99.90;;;;;;2063394;28;20279;-65
2024/01/25 03:31:48;;;;;;;1.67;0.70;;;6.10;99.90;;;;;;2059567;28;20930;-65
2024/01/25 03:32:49;;;;;;;1.43;0.70;;;6.10;99.90;;;;;;2057380;28;20345;-65
2024/01/25 03:33:49;;;;;;;2.53;0.60;;;6.20;99.90;;;;;;2058301;28;20320;-65
2024/01/25 03:34:50;;;;;;;0.83;0.80;;;6.20;99.90;;;;;;2058539;28;20233;-65
2024/01/25 03:35:51;;;;;;;2.50;0.63;;;6.10;99.90;;;;;;2057827;28;20285;-65
2024/01/25 03:36:54;;;;;;;1.88;0.57;;;6.20;99.90;;;;;;2054376;28;20232;-65
2024/01/25 03:37:54;;;;;;;2.28;0.65;;;6.20;99.90;;;;;;2056485;28;20596;-64
2024/01/25 03:38:55;;;;;;;1.57;0.67;;;6.20;99.90;;;;;;2055524;28;20253;-64
2024/01/25 03:39:56;;;;;;;2.20;0.60;;;6.10;99.90;;;;;;2046078;28;20895;-64
2024/01/25 03:40:58;;;;;;;5.10;0.70;;;6.10;99.90;;;;;;2058992;28;20245;-64
2024/01/25 03:41:58;;;;;;;4.47;0.90;;;6.10;99.90;;;;;;2064936;28;20323;-64
2024/01/25 03:42:59;;;;;;;2.37;1.00;;;6.20;99.90;;;;;;2050919;28;20942;-64
2024/01/25 03:44:00;;;;;;;3.90;1.67;;;6.20;99.90;;;;;;2049220;28;20633;-65
2024/01/25 03:45:00;;;;;;;2.87;0.90;;;6.10;99.90;;;;;;2061016;28;20230;-64
2024/01/25 03:46:02;;;;;;;2.30;0.80;;;6.10;99.90;;;;;;2057375;28;21010;-64
2024/01/25 03:47:03;;;;;;;2.45;0.63;;;6.10;99.90;;;;;;2058528;28;20194;-65
2024/01/25 03:48:04;;;;;;;1.73;1.00;;;6.10;99.90;;;;;;2058441;28;20193;-65
2024/01/25 03:49:05;;;;;;;3.97;0.80;;;6.10;99.90;;;;;;2060828;28;20285;-65
2024/01/25 03:50:06;;;;;;;3.17;0.80;;;6.10;99.90;;;;;;2064503;28;20618;-65
2024/01/25 03:51:07;;;;;;;0.60;0.50;;;6.10;99.90;;;;;;2065161;28;20600;-65
2024/01/25 03:52:08;;;;;;;2.20;1.13;;;6.20;99.90;;;;;;2056362;28;20209;-65
2024/01/25 03:53:09;;;;;;;1.90;0.70;;;6.20;99.90;;;;;;2061636;28;20218;-65
2024/01/25 03:54:09;;;;;;;3.87;1.10;;;6.20;99.90;;;;;;2068311;28;20236;-65
2024/01/25 03:55:10;;;;;;;2.93;0.73;;;6.20;99.90;;;;;;2067207;28;20521;-65
2024/01/25 03:56:17;;;;;;;1.53;0.73;;;6.20;99.90;;;;;;2064956;28;20182;-65
2024/01/25 03:57:17;;;;;;;2.15;0.88;;;6.10;99.90;;;;;;2064837;28;20680;-65
2024/01/25 03:58:18;;;;;;;3.13;1.00;;;6.00;99.90;;;;;;2064601;28;20201;-65
2024/01/25 03:59:19;;;;;;;0.90;0.70;;;6.10;99.90;;;;;;2068911;28;20197;-65
2024/01/25 04:00:19;;;;;;;3.87;1.10;;;6.10;99.90;;;;;;2064961;28;20197;-65
2024/01/25 04:01:20;;;;;;;1.90;0.80;;;6.10;99.90;;;;;;2064141;28;30334;-65
2024/01/25 04:02:21;;;;;;;6.20;1.10;;;6.20;99.90;;;;;;2065384;28;20320;-64
2024/01/25 04:03:21;;;;;;;3.97;1.00;;;6.20;99.90;;;;;;2058763;28;20268;-65
2024/01/25 04:04:22;;;;;;;3.43;1.13;;;6.20;99.90;;;;;;2060277;28;20627;-65
2024/01/25 04:05:23;;;;;;;2.60;0.80;;;6.20;99.90;;;;;;2061425;28;20218;-64
2024/01/25 04:06:24;;;;;;;1.80;0.70;;;6.20;99.90;;;;;;2052045;28;21169;-64
2024/01/25 04:07:24;;;;;;;2.33;0.80;;;6.20;99.90;;;;;;2060347;28;20258;-65
2024/01/25 04:08:25;;;;;;;2.20;0.90;;;6.10;99.90;;;;;;2065830;28;20706;-65
2024/01/25 04:09:26;;;;;;;1.80;0.90;;;6.20;99.90;;;;;;2065527;28;20303;-65
2024/01/25 04:10:26;;;;;;;4.10;0.80;;;6.20;99.90;;;;;;2059062;28;20718;-65
2024/01/25 04:11:27;;;;;;;1.73;1.00;;;6.20;99.90;;;;;;2061241;28;20327;-65
2024/01/25 04:12:28;;;;;;;2.50;1.10;;;6.20;99.90;;;;;;2065502;28;20718;-65
2024/01/25 04:13:28;;;;;;;2.83;1.20;;;6.20;99.90;;;;;;2065776;28;20260;-65
2024/01/25 04:14:29;;;;;;;1.37;0.70;;;6.20;99.90;;;;;;2065674;28;20601;-65
2024/01/25 04:15:30;;;;;;;3.33;0.80;;;6.20;99.90;;;;;;2056126;28;20262;-65
2024/01/25 04:16:33;;;;;;;1.20;0.70;;;6.20;99.90;;;;;;2059658;28;20233;-65
2024/01/25 04:17:34;;;;;;;1.50;1.33;;;6.20;99.90;;;;;;2058674;28;20232;-65
2024/01/25 04:18:34;;;;;;;1.67;0.60;;;6.20;99.90;;;;;;2051195;28;20270;-65
2024/01/25 04:19:38;;;;;;;2.90;0.90;;;6.20;99.90;;;;;;2054464;28;20231;-65
2024/01/25 04:20:41;;;;;;;3.47;1.13;;;6.20;99.90;;;;;;2048709;28;20236;-65
2024/01/25 04:21:42;;;;;;;2.20;1.02;;;6.10;99.90;;;;;;2046020;28;20233;-65
2024/01/25 04:22:42;;;;;;;2.23;1.00;;;6.10;99.90;;;;;;2050083;28;20264;-65
2024/01/25 04:23:43;;;;;;;2.33;0.80;;;6.10;99.90;;;;;;2059641;28;20230;-65
2024/01/25 04:24:44;;;;;;;2.20;1.10;;;6.00;99.90;;;;;;2061991;28;20388;-65
2024/01/25 04:25:44;;;;;;;3.37;1.10;;;6.00;99.90;;;;;;2061597;28;20321;-65
2024/01/25 04:26:45;;;;;;;2.10;0.83;;;6.00;99.90;;;;;;2061196;28;20226;-65
2024/01/25 04:27:46;;;;;;;2.67;0.80;;;6.00;99.90;;;;;;2061751;28;20227;-65
2024/01/25 04:28:47;;;;;;;1.03;0.70;;;6.00;99.90;;;;;;2068240;28;20244;-65
2024/01/25 04:29:47;;;;;;;1.87;0.73;;;6.00;99.90;;;;;;2058304;28;20218;-65
2024/01/25 04:30:48;;;;;;;1.70;0.90;;;6.10;99.90;;;;;;2055448;28;20790;-65
2024/01/25 04:31:49;;;;;;;2.97;1.43;;;6.10;99.90;;;;;;2060990;28;20511;-65
2024/01/25 04:32:50;;;;;;;1.40;0.60;;;6.10;99.90;;;;;;2062057;28;20385;-65
2024/01/25 04:33:50;;;;;;;1.97;0.70;;;6.10;99.90;;;;;;2061043;28;20309;-65
2024/01/25 04:34:51;;;;;;;2.00;0.60;;;6.10;99.90;;;;;;2056214;28;20230;-65
2024/01/25 04:35:52;;;;;;;4.90;1.53;;;6.10;99.90;;;;;;2049577;28;20226;-65
2024/01/25 04:36:52;;;;;;;1.13;0.80;;;6.10;99.90;;;;;;2045756;28;20301;-65
2024/01/25 04:37:53;;;;;;;0.97;0.70;;;6.10;99.90;;;;;;2059703;28;20222;-65
2024/01/25 04:38:54;;;;;;;1.83;0.70;;;6.00;99.90;;;;;;2054684;28;20785;-65
2024/01/25 04:39:54;;;;;;;1.90;1.00;;;6.10;99.90;;;;;;2053298;28;20258;-65
2024/01/25 04:40:55;;;;;;;2.53;1.00;;;6.10;99.90;;;;;;2052127;28;20620;-65
2024/01/25 04:41:56;;;;;;;1.87;0.90;;;6.20;99.90;;;;;;2060444;28;20358;-65
2024/01/25 04:42:56;;;;;;;1.70;0.70;;;6.20;99.90;;;;;;2060915;28;20240;-65
2024/01/25 04:43:57;;;;;;;2.40;0.80;;;6.20;99.90;;;;;;2060680;28;20229;-65
2024/01/25 04:44:58;;;;;;;2.47;0.80;;;6.20;99.90;;;;;;2069824;28;20252;-65
2024/01/25 04:45:58;;;;;;;2.27;0.93;;;6.30;99.90;;;;;;2065623;28;20269;-65
2024/01/25 04:47:00;;;;;;;2.90;0.70;;;6.20;99.90;;;;;;2065981;28;20731;-65
2024/01/25 04:48:01;;;;;;;3.22;0.98;;;6.20;99.90;;;;;;2066311;28;20225;-65
2024/01/25 04:49:01;;;;;;;1.50;0.90;;;6.20;99.90;;;;;;2060265;28;20234;-65
2024/01/25 04:50:02;;;;;;;3.13;1.20;;;6.20;99.90;;;;;;2061697;28;20264;-65
2024/01/25 04:51:03;;;;;;;1.80;0.80;;;6.20;99.90;;;;;;2069951;28;20189;-64
2024/01/25 04:52:04;;;;;;;3.80;1.10;;;6.20;99.90;;;;;;2070330;28;20224;-65
2024/01/25 04:53:05;;;;;;;1.23;0.75;;;6.20;99.90;;;;;;2065590;28;20997;-65
2024/01/25 04:54:07;;;;;;;3.03;1.10;;;6.10;99.90;;;;;;2065447;28;20329;-65
2024/01/25 04:55:08;;;;;;;2.15;0.95;;;6.10;99.90;;;;;;2067951;28;20189;-65
2024/01/25 04:56:09;;;;;;;3.17;0.98;;;6.10;99.90;;;;;;2066905;28;20190;-65
2024/01/25 04:57:10;;;;;;;2.97;1.35;;;6.00;99.90;;;;;;2066421;28;20272;-64
2024/01/25 04:58:11;;;;;;;5.37;0.97;;;6.00;99.90;;;;;;2064591;28;20185;-65
2024/01/25 04:59:12;;;;;;;3.30;0.73;;;6.00;99.90;;;;;;2065605;28;20657;-65
2024/01/25 05:00:13;;;;;;;2.80;1.20;;;6.00;99.90;;;;;;2057289;28;20215;-65
2024/01/25 05:01:14;;;;;;;2.38;0.90;;;6.00;99.90;;;;;;2053102;28;20199;-65
2024/01/25 05:02:14;;;;;;;1.53;0.87;;;6.00;99.90;;;;;;2061356;28;20902;-65
2024/01/25 05:03:15;;;;;;;3.10;1.00;;;6.10;99.90;;;;;;2070822;28;20201;-65
2024/01/25 05:04:16;;;;;;;0.63;0.50;;;6.20;99.90;;;;;;2064662;28;20240;-65
2024/01/25 05:05:17;;;;;;;0.90;0.60;;;6.30;99.90;;;;;;2064715;28;20190;-65
2024/01/25 05:06:17;;;;;;;2.00;1.00;;;6.30;99.90;;;;;;2064064;28;20428;-65
2024/01/25 05:07:18;;;;;;;2.60;0.77;;;6.40;99.90;;;;;;2060720;28;21035;-65
2024/01/25 05:08:19;;;;;;;1.07;0.50;;;6.40;99.90;;;;;;2058320;28;20198;-65
2024/01/25 05:09:19;;;;;;;3.47;1.27;;;6.40;99.90;;;;;;2069084;28;20186;-65
2024/01/25 05:10:20;;;;;;;1.97;1.07;;;6.30;99.90;;;;;;2066193;28;20182;-66
2024/01/25 05:11:21;;;;;;;0.70;0.63;;;6.30;99.90;;;;;;2064498;28;20247;-65
2024/01/25 05:12:21;;;;;;;2.47;0.73;;;6.30;99.90;;;;;;2057616;28;20320;-65
2024/01/25 05:13:22;;;;;;;2.20;0.70;;;6.20;99.90;;;;;;2058644;28;20226;-65
2024/01/25 05:14:23;;;;;;;0.70;0.60;;;6.30;99.90;;;;;;2058264;28;20230;-65
2024/01/25 05:15:23;;;;;;;1.17;0.50;;;6.20;99.90;;;;;;2058319;28;20240;-65
2024/01/25 05:16:24;;;;;;;2.80;1.77;;;6.20;99.90;;;;;;2066441;28;20288;-65
2024/01/25 05:17:25;;;;;;;3.53;1.57;;;6.30;99.90;;;;;;2066805;28;20249;-65
2024/01/25 05:18:26;;;;;;;1.42;0.65;;;6.30;99.90;;;;;;2061412;28;20230;-65
2024/01/25 05:19:26;;;;;;;1.63;1.37;;;6.20;99.90;;;;;;2062250;28;20230;-66
2024/01/25 05:20:34;;;;;;;1.80;1.40;;;6.30;99.90;;;;;;2065070;28;20237;-65
2024/01/25 05:21:35;;;;;;;1.90;0.80;;;6.30;99.90;;;;;;2057315;28;20226;-65